Time;durP1;ratioP1;P1;durP2;ratioP2;P2;SDS_P1;SDS_P2;PMS_P1;PMS_P2;Temp;Humidity;BMP_temperature;BMP_pressure;BME280_temperature;BME280_humidity;BME280_pressure;Samples;Min_cycle;Max_cycle;Signal;HPM_P1;HPM_P2
2022/08/04 00:01:33;;;;;;;;;;;24.30;74.60;;;;;;4984508;28;19933;-80
2022/08/04 00:04:01;;;;;;;;;;;24.30;74.70;;;;;;4981190;28;20317;-79
2022/08/04 00:06:34;;;;;;;;;;;24.20;74.80;;;;;;4984609;28;19926;-79
2022/08/04 00:09:04;;;;;;;;;;;24.20;74.90;;;;;;4989979;28;19941;-80
2022/08/04 00:11:33;;;;;;;;;;;24.20;74.80;;;;;;4988924;28;19925;-81
2022/08/04 00:14:02;;;;;;;;;;;24.20;74.90;;;;;;4982169;28;19953;-79
2022/08/04 00:16:30;;;;;;;;;;;24.20;74.90;;;;;;4985842;28;19937;-79
2022/08/04 00:18:57;;;;;;;;;;;;;;;;;;4985569;28;19968;-80
2022/08/04 00:21:25;;;;;;;;;;;24.10;74.40;;;;;;4985168;28;19926;-80
2022/08/04 00:23:52;;;;;;;;;;;24.10;75.00;;;;;;4982359;28;19925;-81
2022/08/04 00:26:19;;;;;;;;;;;24.00;75.00;;;;;;4986061;28;19972;-80
2022/08/04 00:28:48;;;;;;;;;;;24.00;75.00;;;;;;4986821;28;19964;-79
2022/08/04 00:31:15;;;;;;;;;;;23.90;75.00;;;;;;4984510;28;20467;-79
2022/08/04 00:33:43;;;;;;;;;;;23.90;75.00;;;;;;4987558;28;19925;-78
2022/08/04 00:36:11;;;;;;;;;;;23.90;75.00;;;;;;4985301;28;20021;-79
2022/08/04 00:38:40;;;;;;;;;;;23.90;75.00;;;;;;4983964;28;19930;-79
2022/08/04 00:41:11;;;;;;;;;;;23.80;75.00;;;;;;4985818;28;20019;-80
2022/08/04 00:43:42;;;;;;;;;;;23.80;75.10;;;;;;4984473;28;19926;-79
2022/08/04 00:46:28;;;;;;;;;;;23.80;75.10;;;;;;4983585;28;20004;-80
2022/08/04 00:49:10;;;;;;;;;;;23.80;75.20;;;;;;4984943;28;19989;-82
2022/08/04 00:51:47;;;;;;;;;;;23.70;75.10;;;;;;4974229;28;19948;-80
2022/08/04 00:54:18;;;;;;;;;;;23.70;75.30;;;;;;4982000;28;20448;-80
2022/08/04 00:57:02;;;;;;;;;;;23.60;75.20;;;;;;4989097;28;20251;-78
2022/08/04 00:59:34;;;;;;;;;;;23.60;75.20;;;;;;4986013;28;19933;-79
2022/08/04 01:02:07;;;;;;;;;;;23.60;75.20;;;;;;4982529;28;19933;-80
2022/08/04 01:04:46;;;;;;;;;;;23.50;75.20;;;;;;4986739;28;19926;-80
2022/08/04 01:07:21;;;;;;;;;;;23.50;75.40;;;;;;4986643;28;20028;-79
2022/08/04 01:09:59;;;;;;;;;;;23.50;75.40;;;;;;4987421;28;19926;-79
2022/08/04 01:12:40;;;;;;;;;;;23.40;75.40;;;;;;4980621;28;19930;-80
2022/08/04 01:15:10;;;;;;;;;;;23.40;75.50;;;;;;4988638;28;19930;-80
2022/08/04 01:17:46;;;;;;;;;;;23.40;76.20;;;;;;4988613;28;19960;-79
2022/08/04 01:20:17;;;;;;;;;;;23.30;75.50;;;;;;4983734;28;20422;-81
2022/08/04 01:23:01;;;;;;;;;;;23.30;75.50;;;;;;4983672;28;19980;-81
2022/08/04 01:25:48;;;;;;;;;;;23.20;75.60;;;;;;4987742;28;19984;-79
2022/08/04 01:28:27;;;;;;;;;;;23.20;75.70;;;;;;4983615;28;19926;-80
2022/08/04 01:30:58;;;;;;;;;;;23.20;75.70;;;;;;4986639;28;19971;-79
2022/08/04 01:33:27;;;;;;;;;;;23.10;75.60;;;;;;4978653;28;19933;-79
2022/08/04 01:35:54;;;;;;;;;;;23.10;75.60;;;;;;4985554;28;19934;-81
2022/08/04 01:38:24;;;;;;;;;;;23.10;75.60;;;;;;4986381;28;19938;-79
2022/08/04 01:40:52;;;;;;;;;;;23.10;75.70;;;;;;4983077;28;19954;-81
2022/08/04 01:43:20;;;;;;;;;;;23.00;75.70;;;;;;4969062;28;19934;-81
2022/08/04 01:45:49;;;;;;;;;;;23.00;75.70;;;;;;4984334;28;19933;-80
2022/08/04 01:48:18;;;;;;;;;;;23.00;75.80;;;;;;4981927;28;20168;-81
2022/08/04 01:50:46;;;;;;;;;;;22.90;75.80;;;;;;4982319;28;19937;-81
2022/08/04 01:53:12;;;;;;;;;;;22.90;75.90;;;;;;4983954;28;19964;-80
2022/08/04 01:55:39;;;;;;;;;;;22.90;76.00;;;;;;4978167;28;19929;-79
2022/08/04 01:58:06;;;;;;;;;;;22.80;75.90;;;;;;4982499;28;19932;-79
2022/08/04 02:00:33;;;;;;;;;;;22.80;76.00;;;;;;4980307;28;20029;-78
2022/08/04 02:03:00;;;;;;;;;;;22.80;76.10;;;;;;4983136;28;20032;-81
2022/08/04 02:05:28;;;;;;;;;;;22.70;76.10;;;;;;4980814;28;19980;-80
2022/08/04 02:08:04;;;;;;;;;;;22.70;76.20;;;;;;4988082;28;19926;-79
2022/08/04 02:10:34;;;;;;;;;;;22.70;76.30;;;;;;4983869;28;19972;-78
2022/08/04 02:13:10;;;;;;;;;;;22.60;76.30;;;;;;4966963;28;20590;-80
2022/08/04 02:15:44;;;;;;;;;;;22.60;76.30;;;;;;4972601;28;19934;-79
2022/08/04 02:18:15;;;;;;;;;;;22.60;76.40;;;;;;4984785;28;20356;-78
2022/08/04 02:20:46;;;;;;;;;;;22.50;76.40;;;;;;4985900;28;20397;-79
2022/08/04 02:23:14;;;;;;;;;;;22.50;76.40;;;;;;4982236;28;20064;-78
2022/08/04 02:25:45;;;;;;;;;;;22.50;76.50;;;;;;4984796;28;19949;-79
2022/08/04 02:28:16;;;;;;;;;;;22.50;76.50;;;;;;4969704;28;20035;-78
2022/08/04 02:30:46;;;;;;;;;;;22.40;76.40;;;;;;4983523;28;19930;-81
2022/08/04 02:33:14;;;;;;;;;;;22.40;76.50;;;;;;4985119;28;19934;-80
2022/08/04 02:35:43;;;;;;;;;;;22.40;76.50;;;;;;4983838;28;19936;-80
2022/08/04 02:38:21;;;;;;;;;;;22.40;76.70;;;;;;4988750;28;19934;-81
2022/08/04 02:40:48;;;;;;;;;;;22.30;76.80;;;;;;4984534;28;19926;-79
2022/08/04 02:43:18;;;;;;;;;;;22.30;76.90;;;;;;4985952;28;19933;-78
2022/08/04 02:45:46;;;;;;;;;;;22.30;76.80;;;;;;4991385;28;19929;-79
2022/08/04 02:48:14;;;;;;;;;;;22.20;76.80;;;;;;4984362;28;20308;-80
2022/08/04 02:50:43;;;;;;;;;;;22.20;76.90;;;;;;4988615;28;20012;-81
2022/08/04 02:53:12;;;;;;;;;;;22.20;76.90;;;;;;4985110;28;19946;-78
2022/08/04 02:55:41;;;;;;;;;;;22.20;77.00;;;;;;4987188;28;19932;-79
2022/08/04 02:58:09;;;;;;;;;;;22.10;76.90;;;;;;4988316;28;20016;-80
2022/08/04 03:00:37;;;;;;;;;;;22.10;76.80;;;;;;4986987;28;20277;-78
2022/08/04 03:03:15;;;;;;;;;;;22.10;76.90;;;;;;4986426;28;19926;-78
2022/08/04 03:05:47;;;;;;;;;;;22.00;76.70;;;;;;4984854;28;19926;-79
2022/08/04 03:08:30;;;;;;;;;;;22.00;76.80;;;;;;4989582;28;20032;-79
2022/08/04 03:11:05;;;;;;;;;;;22.00;77.00;;;;;;4990467;28;19942;-78
2022/08/04 03:13:39;;;;;;;;;;;21.90;77.00;;;;;;4979815;28;20008;-79
2022/08/04 03:16:21;;;;;;;;;;;21.90;77.20;;;;;;4985301;28;19926;-78
2022/08/04 03:19:07;;;;;;;;;;;21.90;77.30;;;;;;4984689;28;20470;-79
2022/08/04 03:21:45;;;;;;;;;;;21.90;77.30;;;;;;4986344;28;20380;-79
2022/08/04 03:24:30;;;;;;;;;;;21.80;77.30;;;;;;4979048;28;19934;-79
2022/08/04 03:27:14;;;;;;;;;;;21.80;77.40;;;;;;4988446;28;19973;-79
2022/08/04 03:30:00;;;;;;;;;;;21.70;77.40;;;;;;4952550;28;19929;-78
2022/08/04 03:32:41;;;;;;;;;;;21.70;77.40;;;;;;4983279;28;20011;-78
2022/08/04 03:35:21;;;;;;;;;;;21.70;77.50;;;;;;4951918;28;19926;-77
2022/08/04 03:38:06;;;;;;;;;;;21.70;77.60;;;;;;4970826;28;20562;-77
2022/08/04 03:40:43;;;;;;;;;;;21.70;77.80;;;;;;4972115;28;19930;-79
2022/08/04 03:43:31;;;;;;;;;;;21.60;77.80;;;;;;4980807;28;19980;-78
2022/08/04 03:46:08;;;;;;;;;;;21.60;77.60;;;;;;4986325;28;19934;-76
2022/08/04 03:49:00;;;;;;;;;;;21.60;77.70;;;;;;4985871;28;19965;-76
2022/08/04 03:54:30;;;;;;;;;;;21.50;77.60;;;;;;4980489;28;19930;-77
2022/08/04 03:57:07;;;;;;;;;;;21.50;77.70;;;;;;4979564;28;20412;-77
2022/08/04 03:59:44;;;;;;;;;;;21.50;77.90;;;;;;4985358;28;19965;-78
2022/08/04 04:02:28;;;;;;;;;;;21.50;77.90;;;;;;4979720;28;19926;-77
2022/08/04 04:05:04;;;;;;;;;;;21.40;78.00;;;;;;4969446;28;20021;-78
2022/08/04 04:07:47;;;;;;;;;;;21.40;78.20;;;;;;4970692;28;19985;-79
2022/08/04 04:10:14;;;;;;;;;;;;;;;;;;4977322;28;19933;-77
2022/08/04 04:12:59;;;;;;;;;;;21.40;78.10;;;;;;4987767;28;19929;-77
2022/08/04 04:15:37;;;;;;;;;;;21.30;78.70;;;;;;4957585;28;19983;-78
2022/08/04 04:18:15;;;;;;;;;;;21.30;77.90;;;;;;4984665;28;19926;-79
2022/08/04 04:21:00;;;;;;;;;;;21.30;78.40;;;;;;4988606;28;19953;-78
2022/08/04 04:23:46;;;;;;;;;;;21.30;78.50;;;;;;4983142;28;19950;-80
2022/08/04 04:26:26;;;;;;;;;;;21.20;78.30;;;;;;4987549;28;19981;-78
2022/08/04 04:28:58;;;;;;;;;;;21.20;78.30;;;;;;4960412;28;19977;-79
2022/08/04 04:31:37;;;;;;;;;;;21.20;78.30;;;;;;4993455;28;19925;-78
2022/08/04 04:34:08;;;;;;;;;;;21.20;78.50;;;;;;4987283;28;20389;-78
2022/08/04 04:36:42;;;;;;;;;;;21.20;78.60;;;;;;4975518;28;19926;-77
2022/08/04 04:39:19;;;;;;;;;;;21.10;78.50;;;;;;4960766;28;20013;-77
2022/08/04 04:41:56;;;;;;;;;;;21.10;78.60;;;;;;4987493;28;19971;-78
2022/08/04 04:44:53;;;;;;;;;;;21.10;78.60;;;;;;4987929;28;19969;-77
2022/08/04 04:47:23;;;;;;;;;;;21.00;78.60;;;;;;4987829;28;20324;-76
2022/08/04 04:49:54;;;;;;;;;;;21.10;78.70;;;;;;4967309;28;19930;-76
2022/08/04 04:52:24;;;;;;;;;;;21.00;78.70;;;;;;4980899;28;19934;-78
2022/08/04 04:54:53;;;;;;;;;;;21.00;79.00;;;;;;4985970;28;19965;-76
2022/08/04 04:57:21;;;;;;;;;;;21.00;79.00;;;;;;4976759;28;19981;-77
2022/08/04 04:59:50;;;;;;;;;;;21.00;79.00;;;;;;4978177;28;20308;-76
2022/08/04 05:02:31;;;;;;;;;;;20.90;79.10;;;;;;4985477;28;19969;-77
2022/08/04 05:05:15;;;;;;;;;;;20.90;79.10;;;;;;4985843;28;20361;-76
2022/08/04 05:08:01;;;;;;;;;;;20.90;79.20;;;;;;4982450;28;20044;-77
2022/08/04 05:10:38;;;;;;;;;;;20.90;79.20;;;;;;4985974;28;19929;-79
2022/08/04 05:13:13;;;;;;;;;;;20.90;79.20;;;;;;4974916;28;19967;-77
2022/08/04 05:15:42;;;;;;;;;;;20.80;79.10;;;;;;4983770;28;19926;-77
2022/08/04 05:18:12;;;;;;;;;;;20.80;79.10;;;;;;4979501;28;20032;-77
2022/08/04 05:20:41;;;;;;;;;;;20.80;79.20;;;;;;4982025;28;19972;-78
2022/08/04 05:23:11;;;;;;;;;;;20.80;79.30;;;;;;4979252;28;19929;-76
2022/08/04 05:25:43;;;;;;;;;;;20.80;79.30;;;;;;4980202;28;20371;-76
2022/08/04 05:28:12;;;;;;;;;;;20.80;79.30;;;;;;4976646;28;19934;-79
2022/08/04 05:30:47;;;;;;;;;;;20.80;79.10;;;;;;4973884;28;20304;-78
2022/08/04 05:33:15;;;;;;;;;;;20.70;78.90;;;;;;4975864;28;19941;-77
2022/08/04 05:35:44;;;;;;;;;;;20.70;78.10;;;;;;4967607;28;19934;-80
2022/08/04 05:38:12;;;;;;;;;;;20.70;78.60;;;;;;4972075;28;19933;-77
2022/08/04 05:40:40;;;;;;;;;;;20.60;78.30;;;;;;4976981;28;19993;-78
2022/08/04 05:43:07;;;;;;;;;;;20.50;79.10;;;;;;4979568;28;19926;-77
2022/08/04 05:45:34;;;;;;;;;;;20.50;79.90;;;;;;4975015;28;19989;-79
2022/08/04 05:48:01;;;;;;;;;;;20.50;80.00;;;;;;4964750;28;19934;-77
2022/08/04 05:50:29;;;;;;;;;;;20.50;80.30;;;;;;4970964;28;20101;-80
2022/08/04 05:52:57;;;;;;;;;;;20.50;80.50;;;;;;4970886;28;19934;-79
2022/08/04 05:55:25;;;;;;;;;;;20.50;81.10;;;;;;4980116;28;19934;-79
2022/08/04 05:57:53;;;;;;;;;;;20.50;81.90;;;;;;4984630;28;19926;-79
2022/08/04 06:00:20;;;;;;;;;;;20.50;81.90;;;;;;4994760;28;19968;-79
2022/08/04 06:02:48;;;;;;;;;;;20.50;81.90;;;;;;4989100;28;20304;-79
2022/08/04 06:05:16;;;;;;;;;;;20.50;81.70;;;;;;4990783;28;19980;-80
2022/08/04 06:07:43;;;;;;;;;;;20.50;81.50;;;;;;4985369;28;20259;-79
2022/08/04 06:10:13;;;;;;;;;;;20.50;81.50;;;;;;4989697;28;19961;-79
2022/08/04 06:12:41;;;;;;;;;;;20.50;81.40;;;;;;4973937;28;19930;-79
2022/08/04 06:15:13;;;;;;;;;;;20.50;81.40;;;;;;4981037;28;19930;-80
2022/08/04 06:17:42;;;;;;;;;;;20.60;81.60;;;;;;4989162;28;20470;-79
2022/08/04 06:20:10;;;;;;;;;;;20.60;81.40;;;;;;4985224;28;20343;-79
2022/08/04 06:22:40;;;;;;;;;;;20.60;81.40;;;;;;4987434;28;20380;-79
2022/08/04 06:25:08;;;;;;;;;;;20.60;81.40;;;;;;4989449;28;19973;-79
2022/08/04 06:27:35;;;;;;;;;;;20.60;81.40;;;;;;4971446;28;19961;-80
2022/08/04 06:30:05;;;;;;;;;;;20.60;81.40;;;;;;4987768;28;19972;-80
2022/08/04 06:32:46;;;;;;;;;;;20.60;81.40;;;;;;4984152;28;19926;-81
2022/08/04 06:35:14;;;;;;;;;;;20.60;81.40;;;;;;4989880;28;19925;-80
2022/08/04 06:37:42;;;;;;;;;;;20.70;81.40;;;;;;4981155;28;19926;-80
2022/08/04 06:40:13;;;;;;;;;;;20.70;81.50;;;;;;4988234;28;19929;-80
2022/08/04 06:42:40;;;;;;;;;;;20.70;81.50;;;;;;4986814;28;20005;-81
2022/08/04 06:45:08;;;;;;;;;;;20.70;81.50;;;;;;4992026;28;20308;-80
2022/08/04 06:47:37;;;;;;;;;;;20.70;81.40;;;;;;4982727;28;19954;-79
2022/08/04 06:50:04;;;;;;;;;;;20.80;81.60;;;;;;4990740;28;19934;-81
2022/08/04 06:52:31;;;;;;;;;;;20.80;81.40;;;;;;4987122;28;19930;-80
2022/08/04 06:54:58;;;;;;;;;;;20.80;81.50;;;;;;4969146;28;19926;-80
2022/08/04 06:57:27;;;;;;;;;;;20.80;81.40;;;;;;4982321;28;20304;-82
2022/08/04 06:59:57;;;;;;;;;;;20.80;81.50;;;;;;4987335;28;19956;-80
2022/08/04 07:02:26;;;;;;;;;;;20.80;81.50;;;;;;4986598;28;20356;-80
2022/08/04 07:04:54;;;;;;;;;;;20.80;81.50;;;;;;4988791;28;20004;-80
2022/08/04 07:07:21;;;;;;;;;;;20.80;81.50;;;;;;4985234;28;20392;-80
2022/08/04 07:09:48;;;;;;;;;;;20.80;81.50;;;;;;4985052;28;20212;-80
2022/08/04 07:12:19;;;;;;;;;;;20.90;81.70;;;;;;4989967;28;19926;-80
2022/08/04 07:14:46;;;;;;;;;;;20.90;81.80;;;;;;4973398;28;19934;-80
2022/08/04 07:17:14;;;;;;;;;;;20.90;81.90;;;;;;4972445;28;19926;-80
2022/08/04 07:19:43;;;;;;;;;;;20.90;81.80;;;;;;4981152;28;20024;-80
2022/08/04 07:22:12;;;;;;;;;;;21.00;82.00;;;;;;4987718;28;19926;-80
2022/08/04 07:24:39;;;;;;;;;;;21.00;82.10;;;;;;4971734;28;19934;-81
2022/08/04 07:27:06;;;;;;;;;;;21.00;82.10;;;;;;4989970;28;19925;-80
2022/08/04 07:29:33;;;;;;;;;;;21.00;82.10;;;;;;4971608;28;19933;-81
2022/08/04 07:32:00;;;;;;;;;;;21.00;82.30;;;;;;4993352;28;19926;-80
2022/08/04 07:34:28;;;;;;;;;;;21.00;82.40;;;;;;4973903;28;19926;-81
2022/08/04 07:36:55;;;;;;;;;;;21.10;82.60;;;;;;4983133;28;19930;-80
2022/08/04 07:39:25;;;;;;;;;;;21.10;82.70;;;;;;4992724;28;19949;-80
2022/08/04 07:41:52;;;;;;;;;;;21.10;82.80;;;;;;4987933;28;19926;-80
2022/08/04 07:44:19;;;;;;;;;;;21.20;82.90;;;;;;4994224;28;19979;-81
2022/08/04 07:46:46;;;;;;;;;;;21.20;82.90;;;;;;4968299;28;20036;-80
2022/08/04 07:49:13;;;;;;;;;;;21.20;82.90;;;;;;4989950;28;19926;-80
2022/08/04 07:51:40;;;;;;;;;;;21.20;82.90;;;;;;4988865;28;19985;-80
2022/08/04 07:54:09;;;;;;;;;;;21.20;83.00;;;;;;4968505;28;19926;-80
2022/08/04 07:56:39;;;;;;;;;;;21.30;83.20;;;;;;4988943;28;19932;-82
2022/08/04 07:59:06;;;;;;;;;;;21.30;83.30;;;;;;4989746;28;19926;-82
2022/08/04 08:01:34;;;;;;;;;;;21.30;83.20;;;;;;4989910;28;19941;-79
2022/08/04 08:04:01;;;;;;;;;;;21.30;83.20;;;;;;4982106;28;19973;-81
2022/08/04 08:06:29;;;;;;;;;;;21.30;83.30;;;;;;4983716;28;19968;-82
2022/08/04 08:08:56;;;;;;;;;;;21.30;83.30;;;;;;4992476;28;20348;-80
2022/08/04 08:11:23;;;;;;;;;;;21.30;83.30;;;;;;4988524;28;19949;-79
2022/08/04 08:13:51;;;;;;;;;;;21.30;83.30;;;;;;4992365;28;19934;-80
2022/08/04 08:16:19;;;;;;;;;;;21.30;83.30;;;;;;4985637;28;19934;-82
2022/08/04 08:18:46;;;;;;;;;;;21.30;83.30;;;;;;4989710;28;20028;-80
2022/08/04 08:21:13;;;;;;;;;;;21.40;83.50;;;;;;4988035;28;20372;-80
2022/08/04 08:23:40;;;;;;;;;;;21.40;83.50;;;;;;4988768;28;20193;-80
2022/08/04 08:26:07;;;;;;;;;;;21.40;83.50;;;;;;4986066;28;20381;-80
2022/08/04 08:28:34;;;;;;;;;;;21.40;83.50;;;;;;4988261;28;19926;-80
2022/08/04 08:31:02;;;;;;;;;;;21.40;83.50;;;;;;4992531;28;20016;-80
2022/08/04 08:33:29;;;;;;;;;;;21.40;83.50;;;;;;4989002;28;19929;-80
2022/08/04 08:36:01;;;;;;;;;;;21.40;83.60;;;;;;4972418;28;20311;-80
2022/08/04 08:38:37;;;;;;;;;;;21.50;83.80;;;;;;4987540;28;19980;-80
2022/08/04 08:41:15;;;;;;;;;;;21.50;83.70;;;;;;4972899;28;20528;-80
2022/08/04 08:43:49;;;;;;;;;;;21.50;83.70;;;;;;4989207;28;20323;-81
2022/08/04 08:46:30;;;;;;;;;;;21.50;83.90;;;;;;4982873;28;19930;-82
2022/08/04 08:49:13;;;;;;;;;;;21.50;83.80;;;;;;4983940;28;20221;-80
2022/08/04 08:51:44;;;;;;;;;;;21.50;83.90;;;;;;4972310;28;19930;-80
2022/08/04 08:54:29;;;;;;;;;;;21.50;84.10;;;;;;4984882;28;19925;-81
2022/08/04 08:57:02;;;;;;;;;;;21.60;84.30;;;;;;4983813;28;19926;-80
2022/08/04 08:59:36;;;;;;;;;;;21.60;84.20;;;;;;4988674;28;19968;-80
2022/08/04 09:02:16;;;;;;;;;;;21.60;84.50;;;;;;4986719;28;19934;-82
2022/08/04 09:05:16;;;;;;;;;;;21.60;84.50;;;;;;4983131;28;19936;-82
2022/08/04 09:07:49;;;;;;;;;;;21.70;84.60;;;;;;4926088;29;20550;-82
2022/08/04 09:10:18;;;;;;;;;;;21.70;84.70;;;;;;4925995;29;19935;-80
2022/08/04 09:12:50;;;;;;;;;;;21.70;84.80;;;;;;4957507;28;19937;-80
2022/08/04 09:20:16;;;;;;;;;;;21.80;84.90;;;;;;5007751;28;19933;-82
2022/08/04 09:22:45;;;;;;;;;;;21.80;85.00;;;;;;5006253;28;20020;-80
2022/08/04 09:25:18;;;;;;;;;;;21.80;85.00;;;;;;5007688;28;19926;-82
2022/08/04 09:27:49;;;;;;;;;;;21.80;85.10;;;;;;5000573;28;19926;-81
2022/08/04 09:30:17;;;;;;;;;;;21.80;85.30;;;;;;5005018;28;19979;-80
2022/08/04 09:32:47;;;;;;;;;;;21.90;85.40;;;;;;5009925;28;19937;-80
2022/08/04 09:35:23;;;;;;;;;;;21.90;85.40;;;;;;4994811;28;20379;-82
2022/08/04 09:37:57;;;;;;;;;;;21.90;85.40;;;;;;5002361;28;20033;-80
2022/08/04 09:40:26;;;;;;;;;;;21.90;85.60;;;;;;5003707;28;19926;-82
2022/08/04 09:43:01;;;;;;;;;;;22.00;85.90;;;;;;5009398;28;21404;-80
2022/08/04 09:45:33;;;;;;;;;;;22.00;85.90;;;;;;5003291;28;19952;-80
2022/08/04 09:48:05;;;;;;;;;;;22.00;85.90;;;;;;5001830;28;19949;-80
2022/08/04 09:50:34;;;;;;;;;;;22.00;85.80;;;;;;5007618;28;20619;-81
2022/08/04 09:53:22;;;;;;;;;;;22.00;85.80;;;;;;5009575;28;20004;-81
2022/08/04 09:55:52;;;;;;;;;;;22.10;86.00;;;;;;4995896;28;19930;-80
2022/08/04 09:58:22;;;;;;;;;;;22.10;86.00;;;;;;5008398;28;19949;-80
2022/08/04 10:00:50;;;;;;;;;;;22.10;86.00;;;;;;5007226;28;19973;-80
2022/08/04 10:03:19;;;;;;;;;;;22.20;86.20;;;;;;4983083;28;19933;-80
2022/08/04 10:05:56;;;;;;;;;;;22.20;86.30;;;;;;5007430;28;19948;-81
2022/08/04 10:08:30;;;;;;;;;;;22.20;86.30;;;;;;5007393;28;19953;-82
2022/08/04 10:11:00;;;;;;;;;;;22.20;86.30;;;;;;4988106;28;19969;-81
2022/08/04 10:13:35;;;;;;;;;;;22.30;86.60;;;;;;5006539;28;19972;-81
2022/08/04 10:16:09;;;;;;;;;;;22.30;86.40;;;;;;5014168;28;19992;-82
2022/08/04 10:18:40;;;;;;;;;;;22.30;86.50;;;;;;5001570;28;19929;-80
2022/08/04 10:21:11;;;;;;;;;;;22.40;86.90;;;;;;5006968;28;19972;-80
2022/08/04 10:23:43;;;;;;;;;;;22.40;86.70;;;;;;5007796;28;19981;-82
2022/08/04 10:26:20;;;;;;;;;;;22.40;86.60;;;;;;5004042;28;20568;-80
2022/08/04 10:28:51;;;;;;;;;;;22.40;86.60;;;;;;5009382;28;19993;-80
2022/08/04 10:31:20;;;;;;;;;;;22.40;86.80;;;;;;5006695;28;20043;-81
2022/08/04 10:33:51;;;;;;;;;;;22.40;86.70;;;;;;5006983;28;20139;-83
2022/08/04 10:36:22;;;;;;;;;;;22.50;87.10;;;;;;5001813;28;19944;-81
2022/08/04 10:38:52;;;;;;;;;;;22.50;87.00;;;;;;5004301;28;19933;-81
2022/08/04 10:41:25;;;;;;;;;;;22.50;87.00;;;;;;5009154;28;19952;-82
2022/08/04 10:44:05;;;;;;;;;;;22.60;87.20;;;;;;5007706;28;19926;-82
2022/08/04 10:46:35;;;;;;;;;;;22.60;87.00;;;;;;5001081;28;20277;-83
2022/08/04 10:49:04;;;;;;;;;;;22.60;87.20;;;;;;5011599;28;20232;-80
2022/08/04 10:51:36;;;;;;;;;;;22.70;87.20;;;;;;5010654;28;19949;-82
2022/08/04 10:54:05;;;;;;;;;;;22.70;87.10;;;;;;5009500;28;20728;-81
2022/08/04 10:56:34;;;;;;;;;;;22.70;87.00;;;;;;4989591;28;19926;-82
2022/08/04 10:59:03;;;;;;;;;;;22.70;87.10;;;;;;5014359;28;19925;-81
2022/08/04 11:01:32;;;;;;;;;;;22.80;87.10;;;;;;5000029;28;19926;-82
2022/08/04 11:04:01;;;;;;;;;;;22.80;86.90;;;;;;5004611;28;20086;-80
2022/08/04 11:06:28;;;;;;;;;;;22.80;86.70;;;;;;5009684;28;20020;-81
2022/08/04 11:08:57;;;;;;;;;;;22.80;86.60;;;;;;5014141;28;19956;-81
2022/08/04 11:11:31;;;;;;;;;;;22.90;86.50;;;;;;5008414;28;20176;-80
2022/08/04 11:14:00;;;;;;;;;;;22.90;86.30;;;;;;4992448;28;19936;-80
2022/08/04 11:16:29;;;;;;;;;;;22.90;86.10;;;;;;5010938;28;19925;-80
2022/08/04 11:19:03;;;;;;;;;;;23.00;86.10;;;;;;5002810;28;19949;-81
2022/08/04 11:21:33;;;;;;;;;;;23.00;86.00;;;;;;5010088;28;19969;-80
2022/08/04 11:24:02;;;;;;;;;;;23.00;86.00;;;;;;5007838;28;20331;-80
2022/08/04 11:26:32;;;;;;;;;;;23.00;85.70;;;;;;4987771;28;19976;-80
2022/08/04 11:29:05;;;;;;;;;;;23.10;85.80;;;;;;5008089;28;19933;-80
2022/08/04 11:31:35;;;;;;;;;;;23.10;85.60;;;;;;4984879;28;20151;-81
2022/08/04 11:34:04;;;;;;;;;;;23.10;85.70;;;;;;5011930;28;19964;-81
2022/08/04 11:36:34;;;;;;;;;;;23.20;85.70;;;;;;4977846;28;19926;-80
2022/08/04 11:39:07;;;;;;;;;;;23.20;85.50;;;;;;4994191;28;20137;-81
2022/08/04 11:41:38;;;;;;;;;;;23.20;85.20;;;;;;5008640;28;20063;-81
2022/08/04 11:44:06;;;;;;;;;;;23.30;85.00;;;;;;5010303;28;19925;-81
2022/08/04 11:46:36;;;;;;;;;;;23.30;85.20;;;;;;5006253;28;19932;-80
2022/08/04 11:49:06;;;;;;;;;;;23.30;85.40;;;;;;5005907;28;19933;-81
2022/08/04 11:51:34;;;;;;;;;;;23.40;85.60;;;;;;5008841;28;19929;-81
2022/08/04 11:54:01;;;;;;;;;;;23.40;85.50;;;;;;5008756;28;19926;-79
2022/08/04 11:56:30;;;;;;;;;;;23.40;85.30;;;;;;5004582;28;19933;-81
2022/08/04 11:58:58;;;;;;;;;;;23.50;85.00;;;;;;5009188;28;19980;-82
2022/08/04 12:01:28;;;;;;;;;;;23.50;84.40;;;;;;5005971;28;19925;-81
2022/08/04 12:04:02;;;;;;;;;;;23.50;83.70;;;;;;5006000;28;19925;-82
2022/08/04 12:06:32;;;;;;;;;;;23.60;84.20;;;;;;5005744;28;19936;-81
2022/08/04 12:09:09;;;;;;;;;;;23.60;84.70;;;;;;5009815;28;20285;-82
2022/08/04 12:11:48;;;;;;;;;;;23.70;84.90;;;;;;5009110;28;19925;-81
2022/08/04 12:14:22;;;;;;;;;;;23.70;85.20;;;;;;5004643;28;20399;-81
2022/08/04 12:16:55;;;;;;;;;;;23.80;84.90;;;;;;5010168;28;19984;-80
2022/08/04 12:19:26;;;;;;;;;;;23.80;85.10;;;;;;5008523;28;19926;-81
2022/08/04 12:21:54;;;;;;;;;;;23.80;85.10;;;;;;5010803;28;19948;-82
2022/08/04 12:24:23;;;;;;;;;;;23.80;85.20;;;;;;4991173;28;20292;-81
2022/08/04 12:26:53;;;;;;;;;;;23.90;85.20;;;;;;5003853;28;19933;-80
2022/08/04 12:29:22;;;;;;;;;;;24.00;85.40;;;;;;5007820;28;19925;-80
2022/08/04 12:31:50;;;;;;;;;;;24.00;85.30;;;;;;5007184;28;19930;-82
2022/08/04 12:34:23;;;;;;;;;;;24.00;85.40;;;;;;5009056;28;19993;-81
2022/08/04 12:36:54;;;;;;;;;;;24.10;85.50;;;;;;5007266;28;19929;-81
2022/08/04 12:39:22;;;;;;;;;;;24.20;85.40;;;;;;5003737;28;19995;-82
2022/08/04 12:41:58;;;;;;;;;;;24.20;85.30;;;;;;5009077;28;19929;-82
2022/08/04 12:44:30;;;;;;;;;;;24.20;85.10;;;;;;5007965;28;20395;-82
2022/08/04 12:46:59;;;;;;;;;;;24.30;85.30;;;;;;4991742;28;19976;-82
2022/08/04 12:49:27;;;;;;;;;;;24.40;85.50;;;;;;5008746;28;19951;-82
2022/08/04 12:51:56;;;;;;;;;;;24.40;85.50;;;;;;5004167;28;20466;-81
2022/08/04 12:54:23;;;;;;;;;;;24.50;85.00;;;;;;5005115;28;19961;-81
2022/08/04 12:56:50;;;;;;;;;;;24.60;85.40;;;;;;5007700;28;19936;-81
2022/08/04 12:59:21;;;;;;;;;;;24.70;85.20;;;;;;5008777;28;19929;-81
2022/08/04 13:01:48;;;;;;;;;;;24.70;85.40;;;;;;4986587;28;20016;-81
2022/08/04 13:04:16;;;;;;;;;;;24.70;85.20;;;;;;5006863;28;19926;-81
2022/08/04 13:06:44;;;;;;;;;;;24.80;85.30;;;;;;4994106;28;19937;-81
2022/08/04 13:09:15;;;;;;;;;;;24.90;85.50;;;;;;5005641;28;19933;-80
2022/08/04 13:11:43;;;;;;;;;;;25.00;85.60;;;;;;5005003;28;19988;-83
2022/08/04 13:14:12;;;;;;;;;;;25.00;85.60;;;;;;5005814;28;19929;-81
2022/08/04 13:16:41;;;;;;;;;;;25.00;85.60;;;;;;4996795;28;19983;-81
2022/08/04 13:19:08;;;;;;;;;;;25.10;85.80;;;;;;4998417;28;20431;-82
2022/08/04 13:21:39;;;;;;;;;;;25.20;85.60;;;;;;5000334;28;19977;-82
2022/08/04 13:24:09;;;;;;;;;;;25.30;85.60;;;;;;5003952;28;19933;-81
2022/08/04 13:26:36;;;;;;;;;;;25.30;85.30;;;;;;4991443;28;19961;-82
2022/08/04 13:29:08;;;;;;;;;;;25.40;85.30;;;;;;5005316;28;19933;-81
2022/08/04 13:31:36;;;;;;;;;;;25.50;85.00;;;;;;5010057;28;19933;-81
2022/08/04 13:34:07;;;;;;;;;;;25.50;85.10;;;;;;4989736;28;20190;-81
2022/08/04 13:36:34;;;;;;;;;;;25.60;86.50;;;;;;5013536;28;19926;-82
2022/08/04 13:39:03;;;;;;;;;;;25.60;84.20;;;;;;5002874;28;19925;-82
2022/08/04 13:41:32;;;;;;;;;;;;;;;;;;5010657;28;19926;-82
2022/08/04 13:44:00;;;;;;;;;;;25.80;84.10;;;;;;4989327;28;19937;-81
2022/08/04 13:46:29;;;;;;;;;;;25.80;84.40;;;;;;5008191;28;19925;-83
2022/08/04 13:48:56;;;;;;;;;;;25.90;84.70;;;;;;4985029;28;19926;-82
2022/08/04 13:51:25;;;;;;;;;;;26.00;84.80;;;;;;4993332;28;19956;-81
2022/08/04 13:56:31;;;;;;;;;;;26.10;84.80;;;;;;5026706;22;19934;-81
2022/08/04 13:58:59;;;;;;;;;;;26.20;84.60;;;;;;4992784;28;19925;-82
2022/08/04 14:01:27;;;;;;;;;;;26.30;84.80;;;;;;5001479;28;20307;-82
2022/08/04 14:03:57;;;;;;;;;;;26.30;85.40;;;;;;4999879;28;19929;-81
2022/08/04 14:06:26;;;;;;;;;;;26.40;84.10;;;;;;4979366;28;20085;-81
2022/08/04 14:08:54;;;;;;;;;;;26.40;84.20;;;;;;4997448;28;19925;-81
2022/08/04 14:11:22;;;;;;;;;;;26.50;84.00;;;;;;5004078;28;19937;-82
2022/08/04 14:13:49;;;;;;;;;;;26.60;84.00;;;;;;4998492;28;19988;-82
2022/08/04 14:16:17;;;;;;;;;;;26.60;83.90;;;;;;4997386;28;20254;-81
2022/08/04 14:18:44;;;;;;;;;;;26.70;84.20;;;;;;5002774;28;20633;-81
2022/08/04 14:21:12;;;;;;;;;;;26.80;84.30;;;;;;5007333;28;19925;-81
2022/08/04 14:23:42;;;;;;;;;;;26.80;84.20;;;;;;5003120;28;19930;-82
2022/08/04 14:26:20;;;;;;;;;;;26.90;84.30;;;;;;5011781;28;19941;-82
2022/08/04 14:28:48;;;;;;;;;;;27.00;84.00;;;;;;4993445;28;20396;-82
2022/08/04 14:31:15;;;;;;;;;;;27.00;83.50;;;;;;5004282;28;19933;-81
2022/08/04 14:33:43;;;;;;;;;;;27.10;83.50;;;;;;4998886;28;20295;-81
2022/08/04 14:36:10;;;;;;;;;;;27.10;83.40;;;;;;5006893;28;19925;-82
2022/08/04 14:38:54;;;;;;;;;;;27.20;83.60;;;;;;5006790;28;19929;-81
2022/08/04 14:41:23;;;;;;;;;;;27.30;83.90;;;;;;4999242;28;19933;-81
2022/08/04 14:43:52;;;;;;;;;;;27.30;83.90;;;;;;5001344;28;19940;-81
2022/08/04 14:46:19;;;;;;;;;;;27.40;83.90;;;;;;5006020;28;19964;-82
2022/08/04 14:49:06;;;;;;;;;;;27.50;83.90;;;;;;5001606;28;20294;-82
2022/08/04 14:51:36;;;;;;;;;;;27.50;83.40;;;;;;5000364;28;19926;-81
2022/08/04 14:54:04;;;;;;;;;;;27.60;83.60;;;;;;5011701;28;19934;-82